Time;durP1;ratioP1;P1;durP2;ratioP2;P2;SDS_P1;SDS_P2;PMS_P1;PMS_P2;Temp;Humidity;BMP_temperature;BMP_pressure;BME280_temperature;BME280_humidity;BME280_pressure;Samples;Min_cycle;Max_cycle;Signal;HPM_P1;HPM_P2
2022/01/24 00:00:10;;;;;;;6.07;3.77;;;4.30;99.90;;;4.80;100.00;99791.81;4926101;29;20465;-75
2022/01/24 00:02:42;;;;;;;5.47;3.57;;;4.40;99.90;;;4.80;100.00;99791.81;4930167;28;20521;-75
2022/01/24 00:05:16;;;;;;;5.30;3.77;;;4.40;99.90;;;4.77;100.00;99787.69;4924690;29;20506;-75
2022/01/24 00:07:46;;;;;;;6.57;4.00;;;4.40;99.90;;;4.76;100.00;99790.38;4925875;29;20466;-75
2022/01/24 00:10:21;;;;;;;5.63;3.70;;;4.30;99.90;;;4.80;100.00;99781.44;4923457;29;20976;-75
2022/01/24 00:13:04;;;;;;;4.77;3.77;;;4.30;99.90;;;4.80;100.00;99789.22;4923909;29;20558;-75
2022/01/24 00:15:58;;;;;;;8.33;4.47;;;4.30;99.90;;;4.84;100.00;99788.06;4921833;29;20477;-75
2022/01/24 00:18:35;;;;;;;4.90;3.70;;;4.20;99.90;;;4.85;100.00;99795.75;4922200;29;20489;-75
2022/01/24 00:26:45;;;;;;;5.47;4.10;;;4.20;99.90;;;4.87;100.00;99798.22;4923017;29;20463;-74
2022/01/24 00:29:18;;;;;;;5.50;3.80;;;4.30;99.90;;;4.84;100.00;99801.03;4925829;29;20557;-75
2022/01/24 00:31:48;;;;;;;6.53;3.73;;;4.30;99.90;;;4.83;100.00;99799.38;4921715;29;20848;-75
2022/01/24 00:34:19;;;;;;;5.90;4.10;;;4.20;99.90;;;4.83;100.00;99802.78;4923520;29;20471;-75
2022/01/24 00:36:50;;;;;;;5.40;3.57;;;4.20;99.90;;;4.87;100.00;99808.59;4924599;29;20622;-75
2022/01/24 00:39:21;;;;;;;4.43;3.67;;;4.20;99.90;;;4.85;100.00;99808.72;4921611;29;20566;-75
2022/01/24 00:42:04;;;;;;;5.70;4.20;;;4.20;99.90;;;4.82;100.00;99805.50;4922494;29;20518;-75
2022/01/24 00:44:49;;;;;;;5.47;4.37;;;4.10;99.90;;;4.82;100.00;99803.75;4923178;29;20481;-75
2022/01/24 00:47:24;;;;;;;5.47;3.50;;;4.20;99.90;;;4.89;100.00;99810.16;4921057;29;20533;-75
2022/01/24 00:53:00;;;;;;;5.13;4.00;;;4.20;99.90;;;4.89;100.00;99807.56;4921988;29;20465;-74
2022/01/24 00:55:35;;;;;;;6.30;4.73;;;4.20;99.90;;;4.90;100.00;99798.84;4920399;29;20906;-75
2022/01/24 00:58:06;;;;;;;5.57;3.90;;;4.20;99.90;;;4.89;100.00;99804.13;4920334;29;20506;-75
2022/01/24 01:00:37;;;;;;;4.60;3.50;;;4.20;99.90;;;4.89;100.00;99801.56;4919949;29;20469;-75
2022/01/24 01:03:07;;;;;;;8.20;3.50;;;4.20;99.90;;;4.91;100.00;99791.88;4919882;29;20481;-75
2022/01/24 01:05:53;;;;;;;6.97;3.90;;;4.20;99.90;;;4.91;100.00;99789.28;4923610;29;20475;-75
2022/01/24 01:19:32;;;;;;;6.33;4.30;;;4.10;99.90;;;4.94;100.00;99794.25;4920777;29;20482;-75
2022/01/24 01:22:02;;;;;;;6.30;4.53;;;4.20;99.90;;;4.95;100.00;99788.16;4923059;29;20462;-75
2022/01/24 01:24:37;;;;;;;5.73;3.63;;;4.20;99.90;;;4.94;100.00;99789.06;4921436;29;20470;-75
2022/01/24 01:27:12;;;;;;;5.60;4.13;;;4.20;99.90;;;4.89;100.00;99788.59;4921494;29;21064;-75
2022/01/24 01:29:58;;;;;;;4.87;3.80;;;4.10;99.90;;;4.87;100.00;99788.69;4921970;29;20872;-75
2022/01/24 01:32:59;;;;;;;5.47;3.53;;;4.10;99.90;;;4.89;100.00;99788.59;4919418;28;20487;-75
2022/01/24 01:35:45;;;;;;;11.10;3.70;;;4.10;99.90;;;4.88;100.00;99789.50;4921543;29;20466;-75
2022/01/24 01:52:25;;;;;;;4.40;2.90;;;4.10;99.90;;;4.75;100.00;99796.50;4922339;29;20462;-75
2022/01/24 01:55:11;;;;;;;4.97;3.30;;;3.90;99.90;;;4.76;100.00;99786.00;4920263;29;20462;-75
2022/01/24 01:57:41;;;;;;;5.13;3.10;;;3.90;99.90;;;4.76;100.00;99777.41;4921839;29;20502;-75
2022/01/24 02:00:16;;;;;;;3.17;2.80;;;4.00;99.90;;;4.73;100.00;99781.06;4918846;29;20463;-75
2022/01/24 02:02:47;;;;;;;3.47;3.07;;;3.90;99.90;;;4.74;100.00;99776.69;4920971;29;20845;-75
2022/01/24 02:05:17;;;;;;;2.60;2.40;;;3.90;99.90;;;4.72;100.00;99768.22;4919909;29;20474;-75
2022/01/24 02:07:50;;;;;;;2.90;2.60;;;3.90;99.90;;;4.72;100.00;99773.41;4921439;29;20539;-75
2022/01/24 02:10:21;;;;;;;3.20;2.90;;;4.00;99.90;;;4.67;100.00;99773.72;4921728;29;20909;-75
2022/01/24 02:12:54;;;;;;;4.30;2.70;;;3.90;99.90;;;4.58;100.00;99767.41;4920585;29;20475;-75
2022/01/24 02:15:34;;;;;;;3.13;2.83;;;3.70;99.90;;;4.40;100.00;99763.50;4922116;29;20470;-75
2022/01/24 02:18:12;;;;;;;4.47;2.70;;;3.50;99.90;;;4.27;100.00;99767.03;4922498;29;20506;-75
2022/01/24 02:23:42;;;;;;;2.63;2.43;;;3.20;99.90;;;4.08;100.00;99764.88;4921404;29;20984;-75
2022/01/24 02:26:19;;;;;;;4.13;3.50;;;3.10;99.90;;;4.03;100.00;99769.50;4922771;29;20459;-75
2022/01/24 02:29:09;;;;;;;3.53;2.20;;;3.10;99.90;;;4.01;100.00;99763.63;4920887;29;20940;-75
2022/01/24 02:31:46;;;;;;;3.00;2.63;;;3.10;99.90;;;3.91;100.00;99762.59;4920170;29;21007;-75
2022/01/24 02:34:30;;;;;;;3.30;2.70;;;3.00;99.90;;;3.82;100.00;99760.59;4922342;29;20470;-75
2022/01/24 02:37:05;;;;;;;3.37;2.70;;;2.90;99.90;;;3.68;100.00;99758.94;4920254;29;20471;-75
2022/01/24 02:39:52;;;;;;;3.20;2.57;;;2.90;99.90;;;3.63;100.00;99761.00;4922798;29;20464;-75
2022/01/24 02:48:25;;;;;;;1.93;1.70;;;2.80;99.90;;;3.45;100.00;99764.78;4929042;29;20452;-75
2022/01/24 02:53:54;;;;;;;4.47;2.70;;;2.60;99.90;;;3.31;100.00;99763.09;4927634;29;20477;-75
2022/01/24 02:56:26;;;;;;;2.73;2.50;;;2.40;99.90;;;3.13;100.00;99769.44;4927547;29;20449;-75
2022/01/24 02:58:56;;;;;;;3.23;2.43;;;2.20;99.90;;;3.12;100.00;99765.22;4922881;29;21056;-75
2022/01/24 03:01:26;;;;;;;2.60;2.40;;;2.10;99.90;;;3.03;100.00;99755.44;4925917;29;20897;-75
2022/01/24 03:03:56;;;;;;;2.37;2.17;;;2.10;99.90;;;3.02;100.00;99753.78;4925482;28;20799;-75
2022/01/24 03:06:27;;;;;;;3.60;2.77;;;2.00;99.90;;;2.99;100.00;99765.13;4924485;29;20505;-75
2022/01/24 03:08:58;;;;;;;5.80;2.70;;;2.10;99.90;;;2.95;100.00;99752.53;4923576;29;20979;-74
2022/01/24 03:11:49;;;;;;;4.33;2.40;;;2.00;99.90;;;2.76;100.00;99754.59;4924255;28;20476;-75
2022/01/24 03:14:19;;;;;;;3.83;2.50;;;1.70;99.90;;;2.81;100.00;99765.50;4923232;29;20498;-75
2022/01/24 03:16:49;;;;;;;2.90;2.37;;;1.90;99.90;;;2.79;100.00;99756.97;4927093;29;20470;-75
2022/01/24 03:19:18;;;;;;;3.00;2.30;;;1.90;99.90;;;2.76;100.00;99752.03;4924932;29;20506;-75
2022/01/24 03:21:48;;;;;;;2.30;2.07;;;1.80;99.90;;;2.56;100.00;99750.69;4925702;29;20463;-75
2022/01/24 03:24:18;;;;;;;4.20;2.70;;;1.50;99.90;;;2.50;100.00;99757.03;4923216;29;20463;-75
2022/01/24 03:26:49;;;;;;;4.20;2.67;;;1.40;99.90;;;2.49;100.00;99746.81;4923464;29;20485;-74
2022/01/24 03:29:19;;;;;;;3.40;2.63;;;1.50;99.90;;;2.53;100.00;99746.50;4925257;29;20512;-74
2022/01/24 03:31:49;;;;;;;2.20;1.70;;;1.60;99.90;;;2.45;100.00;99756.50;4924291;29;20494;-75
2022/01/24 03:34:19;;;;;;;2.47;2.27;;;1.40;99.90;;;2.45;100.00;99743.59;4924982;29;20462;-75
2022/01/24 03:36:48;;;;;;;3.20;2.60;;;1.50;99.90;;;2.37;100.00;99748.38;4922300;29;20470;-75
2022/01/24 03:39:18;;;;;;;3.83;2.93;;;1.30;99.90;;;2.33;100.00;99744.31;4924354;29;20490;-75
2022/01/24 03:41:49;;;;;;;4.20;2.50;;;1.30;99.90;;;2.33;100.00;99744.31;4922975;28;20850;-75
2022/01/24 03:44:19;;;;;;;3.23;2.00;;;1.30;99.90;;;2.23;100.00;99743.22;4922165;29;20482;-75
2022/01/24 03:47:12;;;;;;;2.60;2.23;;;1.20;99.90;;;2.25;100.00;99746.56;4924936;29;21181;-75
2022/01/24 03:49:46;;;;;;;3.73;2.90;;;1.20;99.90;;;2.19;100.00;99740.91;4925717;29;20901;-75
2022/01/24 03:52:17;;;;;;;5.10;2.87;;;1.20;99.90;;;2.21;100.00;99744.25;4923827;29;20474;-75
2022/01/24 03:54:49;;;;;;;2.00;1.80;;;1.20;99.90;;;2.18;100.00;99745.28;4926239;29;20505;-75
2022/01/24 03:57:21;;;;;;;2.63;2.30;;;1.20;99.90;;;2.09;100.00;99745.81;4925645;29;21454;-75
2022/01/24 03:59:52;;;;;;;3.07;2.30;;;1.10;99.90;;;2.07;100.00;99750.25;4926260;29;20494;-75
2022/01/24 04:02:25;;;;;;;3.97;2.70;;;1.00;99.90;;;2.00;100.00;99744.63;4924208;29;20459;-75
2022/01/24 04:04:54;;;;;;;3.07;2.63;;;1.00;99.90;;;2.01;100.00;99748.03;4922425;29;21123;-75
2022/01/24 04:07:23;;;;;;;2.80;2.60;;;1.00;99.90;;;2.03;100.00;99748.75;4921334;29;20461;-75
2022/01/24 04:09:53;;;;;;;5.33;2.87;;;1.20;99.90;;;2.05;100.00;99741.75;4924024;29;20677;-75
2022/01/24 04:12:26;;;;;;;3.00;2.50;;;1.10;99.90;;;2.05;100.00;99752.06;4924458;29;20468;-75
2022/01/24 04:15:45;;;;;;;3.57;3.00;;;1.10;99.90;;;2.01;100.00;99755.78;4921181;29;20454;-75
2022/01/24 04:18:38;;;;;;;3.33;2.30;;;1.00;99.90;;;1.99;100.00;99744.69;4924585;29;20497;-75
2022/01/24 04:21:26;;;;;;;3.93;2.70;;;1.10;99.90;;;2.00;100.00;99747.19;4923749;29;20464;-75
2022/01/24 04:24:02;;;;;;;3.70;2.67;;;1.10;99.90;;;1.93;100.00;99755.38;4923678;29;20473;-74
2022/01/24 04:26:33;;;;;;;4.07;2.67;;;1.00;99.90;;;1.90;100.00;99745.25;4922629;29;20998;-75
2022/01/24 04:29:07;;;;;;;3.17;2.60;;;1.00;99.90;;;1.92;100.00;99748.56;4923370;29;21009;-75
2022/01/24 04:31:38;;;;;;;3.83;2.90;;;1.00;99.90;;;1.85;100.00;99739.53;4922113;29;20477;-75
2022/01/24 04:34:08;;;;;;;4.07;2.60;;;0.90;99.90;;;1.83;100.00;99731.06;4920706;29;20983;-75
2022/01/24 04:36:38;;;;;;;4.10;2.77;;;0.80;99.90;;;1.88;100.00;99734.19;4921914;29;20627;-77
2022/01/24 04:39:09;;;;;;;3.77;3.07;;;1.00;99.90;;;1.87;100.00;99730.81;4922779;29;20500;-75
2022/01/24 04:41:43;;;;;;;3.10;2.47;;;1.00;99.90;;;1.81;100.00;99736.28;4920765;29;20459;-75
2022/01/24 04:44:30;;;;;;;4.27;2.80;;;0.80;99.90;;;1.80;100.00;99728.66;4923455;29;20458;-75
2022/01/24 04:47:12;;;;;;;4.90;3.33;;;0.80;99.90;;;1.81;100.00;99725.97;4920643;29;20525;-75
2022/01/24 04:52:35;;;;;;;3.43;2.50;;;0.70;99.90;;;1.70;100.00;99717.25;4920313;29;20563;-75
2022/01/24 04:55:05;;;;;;;3.50;2.67;;;0.70;99.90;;;1.70;100.00;99723.19;4925170;29;20464;-75
2022/01/24 04:57:35;;;;;;;4.97;2.60;;;0.80;99.90;;;1.65;100.00;99730.38;4924726;29;20461;-75
2022/01/24 05:00:10;;;;;;;4.73;2.70;;;0.60;99.90;;;1.67;100.00;99732.84;4925214;29;20522;-75
2022/01/24 05:02:40;;;;;;;4.73;2.67;;;0.80;99.90;;;1.70;100.00;99732.72;4924345;29;20488;-75
2022/01/24 05:05:16;;;;;;;3.20;2.60;;;0.80;99.90;;;1.68;100.00;99731.94;4924769;29;20462;-75
2022/01/24 05:07:47;;;;;;;5.90;3.03;;;0.70;99.90;;;1.62;100.00;99730.56;4923572;29;20463;-75
2022/01/24 05:10:23;;;;;;;4.80;3.10;;;0.60;99.90;;;1.63;100.00;99732.25;4924361;29;20520;-75
2022/01/24 05:21:57;;;;;;;4.20;2.97;;;0.40;99.90;;;1.42;100.00;99743.78;4918253;29;20469;-75
2022/01/24 05:24:23;;;;;;;4.97;3.00;;;0.40;99.90;;;1.42;100.00;99742.00;4918563;28;21258;-75
2022/01/24 05:26:52;;;;;;;2.93;2.47;;;0.50;99.90;;;1.44;100.00;99737.63;4917508;29;20570;-75
2022/01/24 05:29:22;;;;;;;4.30;2.77;;;0.60;99.90;;;1.38;100.00;99744.88;4917277;29;20590;-75
2022/01/24 05:31:53;;;;;;;17.13;3.80;;;0.40;99.90;;;1.41;100.00;99745.53;4918811;29;20475;-75
2022/01/24 05:34:24;;;;;;;3.90;2.73;;;0.50;99.90;;;1.44;100.00;99753.06;4916154;29;20469;-74
2022/01/24 05:36:54;;;;;;;4.40;2.60;;;0.50;99.90;;;1.42;100.00;99754.91;4921517;29;20971;-75
2022/01/24 05:39:24;;;;;;;3.60;2.67;;;0.50;99.90;;;1.37;100.00;99745.78;4920180;29;20536;-74
2022/01/24 05:41:54;;;;;;;3.00;2.43;;;0.40;99.90;;;1.39;100.00;99742.19;4922954;29;20572;-74
2022/01/24 05:44:23;;;;;;;4.30;3.20;;;0.50;99.90;;;1.33;100.00;99745.13;4921634;29;20475;-74
2022/01/24 05:46:55;;;;;;;3.87;2.73;;;0.30;99.90;;;1.34;100.00;99746.78;4921032;29;20506;-74
2022/01/24 05:49:25;;;;;;;4.43;3.37;;;0.40;99.90;;;1.33;100.00;99742.53;4921155;29;20973;-74
2022/01/24 05:51:55;;;;;;;2.30;2.00;;;0.40;99.90;;;1.33;100.00;99739.97;4921215;29;20938;-74
2022/01/24 05:54:24;;;;;;;4.23;2.83;;;0.40;99.90;;;1.31;100.00;99744.41;4921867;29;21368;-76
2022/01/24 05:56:54;;;;;;;4.63;2.60;;;0.30;99.90;;;1.27;100.00;99740.31;4920570;29;20497;-74
2022/01/24 05:59:23;;;;;;;3.20;2.60;;;0.30;99.90;;;1.32;100.00;99742.66;4926300;29;20501;-74
2022/01/24 06:01:55;;;;;;;4.43;2.90;;;0.40;99.90;;;1.28;100.00;99749.72;4923354;29;20506;-74
2022/01/24 06:04:23;;;;;;;3.60;2.80;;;0.30;99.90;;;1.27;100.00;99744.66;4926651;29;20477;-74
2022/01/24 06:06:52;;;;;;;4.70;3.33;;;0.30;99.90;;;1.24;100.00;99745.66;4926444;29;20549;-74
2022/01/24 06:09:21;;;;;;;3.20;2.70;;;0.40;99.90;;;1.17;100.00;99748.66;4926171;29;20452;-74
2022/01/24 06:11:52;;;;;;;3.10;2.17;;;0.20;99.90;;;1.12;100.00;99748.91;4926084;29;20527;-75
2022/01/24 06:14:22;;;;;;;4.33;3.07;;;0.10;99.90;;;1.16;100.00;99741.84;4928453;29;20472;-75
2022/01/24 06:16:53;;;;;;;4.63;2.97;;;0.20;99.90;;;1.15;100.00;99748.72;4927822;29;20450;-74
2022/01/24 06:19:23;;;;;;;2.93;2.63;;;0.20;99.90;;;0.99;100.00;99750.50;4926350;29;20512;-75
2022/01/24 06:21:53;;;;;;;5.60;3.60;;;0.00;99.90;;;0.95;100.00;99754.16;4927727;29;20492;-75
2022/01/24 06:24:23;;;;;;;5.20;2.80;;;-0.10;99.90;;;0.95;100.00;99757.56;4926714;29;20448;-74
2022/01/24 06:27:12;;;;;;;5.53;2.90;;;0.00;99.90;;;0.99;100.00;99758.22;4926918;29;20925;-75
2022/01/24 06:29:42;;;;;;;4.30;2.97;;;0.10;99.90;;;0.98;100.00;99761.72;4925210;29;20471;-74
2022/01/24 06:32:13;;;;;;;9.60;3.60;;;0.10;99.90;;;0.97;100.00;99762.66;4927444;29;20458;-74
2022/01/24 06:34:44;;;;;;;5.33;2.77;;;0.00;99.90;;;0.95;100.00;99760.16;4928903;28;20495;-74
2022/01/24 06:37:13;;;;;;;5.37;3.00;;;0.10;99.90;;;0.98;100.00;99754.81;4925832;29;20453;-75
2022/01/24 06:39:43;;;;;;;8.47;3.20;;;0.10;99.90;;;0.96;100.00;99766.97;4927506;29;20501;-74
2022/01/24 06:42:21;;;;;;;3.87;2.97;;;0.10;99.90;;;0.86;100.00;99762.41;4926727;29;20458;-74
2022/01/24 06:44:53;;;;;;;8.67;3.47;;;-0.10;99.90;;;0.90;100.00;99761.31;4927462;29;20518;-74
2022/01/24 06:47:24;;;;;;;3.83;3.47;;;0.00;99.90;;;0.88;100.00;99763.97;4925991;29;20902;-74
2022/01/24 06:49:54;;;;;;;13.80;3.77;;;-0.10;99.90;;;0.91;100.00;99775.84;4927588;29;20461;-74
2022/01/24 06:52:24;;;;;;;5.40;3.80;;;0.00;99.90;;;0.84;100.00;99769.34;4926796;29;20954;-74
2022/01/24 06:54:54;;;;;;;5.03;3.33;;;-0.10;99.90;;;0.79;100.00;99779.09;4926359;29;20443;-74
2022/01/24 06:57:24;;;;;;;9.37;4.43;;;-0.20;99.90;;;0.84;100.00;99782.22;4926344;29;20535;-74
2022/01/24 06:59:54;;;;;;;5.40;3.20;;;0.00;99.90;;;0.85;100.00;99776.19;4927024;29;20501;-74
2022/01/24 07:02:24;;;;;;;4.87;3.30;;;0.00;99.90;;;0.86;100.00;99775.28;4926609;29;20458;-74
2022/01/24 07:04:53;;;;;;;3.80;2.43;;;0.00;99.90;;;0.84;100.00;99771.94;4926958;29;20548;-75
2022/01/24 07:07:23;;;;;;;5.97;3.27;;;0.00;99.90;;;0.81;100.00;99778.09;4926967;29;21288;-74
2022/01/24 07:09:53;;;;;;;5.30;3.37;;;0.10;99.90;;;0.76;100.00;99777.53;4925099;29;20463;-74
2022/01/24 07:12:24;;;;;;;8.50;3.10;;;-0.10;99.90;;;0.68;100.00;99776.25;4924227;29;20466;-75
2022/01/24 07:14:54;;;;;;;4.20;3.40;;;-0.30;99.90;;;0.71;100.00;99781.25;4926138;29;20467;-75
2022/01/24 07:17:44;;;;;;;4.60;2.97;;;-0.20;99.90;;;0.74;100.00;99775.91;4924700;29;20489;-75
2022/01/24 07:20:13;;;;;;;5.27;3.80;;;-0.20;99.90;;;0.75;100.00;99782.75;4925325;29;20556;-75
2022/01/24 07:22:44;;;;;;;11.67;3.53;;;-0.20;99.90;;;0.67;100.00;99778.00;4925094;29;20463;-74
2022/01/24 07:25:13;;;;;;;3.87;3.00;;;-0.30;99.90;;;0.69;100.00;99781.34;4925679;29;21006;-74
2022/01/24 07:27:43;;;;;;;4.20;3.40;;;-0.30;99.90;;;0.69;100.00;99788.22;4928620;29;20484;-74
2022/01/24 07:30:15;;;;;;;4.77;2.93;;;-0.30;99.90;;;0.63;100.00;99793.69;4930082;29;20453;-75
2022/01/24 07:32:48;;;;;;;5.73;3.80;;;-0.30;99.90;;;0.64;100.00;99788.47;4929782;29;20461;-75
2022/01/24 07:35:17;;;;;;;5.47;3.40;;;-0.30;99.90;;;0.69;100.00;99798.53;4929530;29;20458;-74
2022/01/24 07:37:47;;;;;;;4.43;2.80;;;-0.30;99.90;;;0.68;100.00;99799.44;4929849;29;20464;-75
2022/01/24 07:40:17;;;;;;;4.20;2.80;;;-0.30;99.90;;;0.66;100.00;99798.69;4928311;29;20830;-75
2022/01/24 07:42:57;;;;;;;5.47;3.03;;;-0.30;99.90;;;0.68;100.00;99796.84;4929385;29;20461;-74
2022/01/24 07:45:27;;;;;;;2.97;2.43;;;-0.30;99.90;;;0.70;100.00;99803.56;4930530;29;20803;-75
2022/01/24 07:48:01;;;;;;;3.60;2.73;;;-0.30;99.90;;;0.66;100.00;99806.41;4929278;29;20485;-75
2022/01/24 07:50:31;;;;;;;4.10;2.90;;;-0.30;99.90;;;0.65;100.00;99802.16;4929135;29;20454;-74
2022/01/24 07:53:06;;;;;;;3.27;2.80;;;-0.30;99.90;;;0.67;100.00;99806.31;4930046;29;20479;-74
2022/01/24 07:55:36;;;;;;;3.30;2.70;;;-0.30;99.90;;;0.58;100.00;99806.81;4929206;29;20574;-75
2022/01/24 07:58:07;;;;;;;4.43;2.93;;;-0.40;99.90;;;0.60;100.00;99806.72;4930615;29;20463;-74
2022/01/24 08:00:38;;;;;;;4.77;3.03;;;-0.40;99.90;;;0.66;100.00;99808.97;4927516;29;20933;-74
2022/01/24 08:03:10;;;;;;;5.97;3.90;;;-0.30;99.90;;;0.68;100.00;99809.72;4929038;29;20860;-74
2022/01/24 08:05:40;;;;;;;4.63;3.30;;;-0.30;99.90;;;0.62;100.00;99815.19;4929192;29;20472;-75
2022/01/24 08:08:11;;;;;;;4.50;2.80;;;-0.30;99.90;;;0.63;100.00;99814.25;4929025;29;20926;-74
2022/01/24 08:10:41;;;;;;;4.53;3.23;;;-0.30;99.90;;;0.60;100.00;99804.13;4928363;29;20454;-75
2022/01/24 08:13:13;;;;;;;5.47;3.47;;;-0.30;99.90;;;0.64;100.00;99808.22;4929775;29;20500;-74
2022/01/24 08:15:43;;;;;;;6.60;3.60;;;-0.30;99.90;;;0.71;100.00;99810.38;4929582;29;20481;-74
2022/01/24 08:18:15;;;;;;;3.30;2.90;;;-0.20;99.90;;;0.72;100.00;99811.22;4928203;29;20563;-74
2022/01/24 08:20:44;;;;;;;3.33;2.93;;;-0.20;99.90;;;0.68;100.00;99807.16;4928398;29;20927;-74
2022/01/24 08:23:16;;;;;;;4.70;3.63;;;-0.30;99.90;;;0.68;100.00;99802.84;4928540;29;20535;-75
2022/01/24 08:25:45;;;;;;;8.37;3.83;;;-0.30;99.90;;;0.76;100.00;99803.25;4929712;29;20854;-74
2022/01/24 08:28:14;;;;;;;4.30;2.83;;;-0.20;99.90;;;0.75;100.00;99804.16;4927861;29;20468;-75
2022/01/24 08:30:45;;;;;;;6.43;3.27;;;-0.10;99.90;;;0.78;100.00;99804.00;4928959;29;20462;-75
2022/01/24 08:33:17;;;;;;;3.87;2.73;;;-0.10;99.90;;;0.84;100.00;99810.56;4929547;29;20967;-75
2022/01/24 08:35:46;;;;;;;8.37;4.73;;;0.10;99.90;;;0.87;100.00;99812.97;4928709;29;20455;-75
2022/01/24 08:38:17;;;;;;;5.60;3.70;;;0.00;99.90;;;0.90;100.00;99815.41;4929110;29;20464;-75
2022/01/24 08:40:50;;;;;;;4.07;3.10;;;0.00;99.90;;;0.97;100.00;99809.00;4928154;29;21031;-75
2022/01/24 08:43:35;;;;;;;3.83;2.77;;;0.10;99.90;;;0.96;100.00;99802.19;4927215;29;20449;-75
2022/01/24 08:46:05;;;;;;;6.23;3.30;;;0.20;99.90;;;0.97;100.00;99798.69;4925702;29;20484;-75
2022/01/24 08:48:37;;;;;;;5.50;4.17;;;0.20;99.90;;;1.03;100.00;99800.94;4927629;29;20566;-74
2022/01/24 08:51:07;;;;;;;4.97;3.30;;;0.20;99.90;;;1.06;100.00;99811.06;4927378;29;20481;-75
2022/01/24 08:53:37;;;;;;;7.67;3.20;;;0.20;99.90;;;1.09;100.00;99813.47;4927332;29;20467;-75
2022/01/24 08:56:10;;;;;;;5.40;3.50;;;0.20;99.90;;;1.14;100.00;99806.34;4925976;29;20919;-74
2022/01/24 08:58:41;;;;;;;5.60;4.20;;;0.40;99.90;;;1.20;100.00;99813.72;4927732;29;20518;-75
2022/01/24 09:01:12;;;;;;;6.27;3.83;;;0.40;99.90;;;1.25;100.00;99816.84;4925082;29;20500;-75
2022/01/24 09:03:43;;;;;;;6.87;4.30;;;0.40;99.90;;;1.32;100.00;99813.03;4927460;29;20902;-75
2022/01/24 09:06:16;;;;;;;5.10;3.77;;;0.50;99.90;;;1.41;100.00;99809.94;4927144;29;20549;-75
2022/01/24 09:08:46;;;;;;;5.00;3.73;;;0.60;99.90;;;1.48;100.00;99806.13;4925686;29;20457;-75
2022/01/24 09:11:15;;;;;;;5.27;4.00;;;0.70;99.90;;;1.55;100.00;99804.00;4926383;29;20451;-75
2022/01/24 09:13:46;;;;;;;7.10;4.80;;;0.70;99.90;;;1.62;100.00;99804.50;4925975;29;20472;-74
2022/01/24 09:16:15;;;;;;;6.43;4.47;;;0.80;99.90;;;1.68;100.00;99801.56;4925196;29;20949;-74
2022/01/24 09:18:47;;;;;;;5.77;4.20;;;1.00;99.90;;;1.72;100.00;99803.88;4926752;29;20467;-75
2022/01/24 09:21:18;;;;;;;5.63;3.30;;;1.10;99.90;;;1.77;100.00;99809.59;4926575;29;20844;-75
2022/01/24 09:23:48;;;;;;;4.57;4.10;;;1.00;99.90;;;1.86;100.00;99811.66;4926266;29;20450;-75
2022/01/24 09:26:18;;;;;;;5.27;3.83;;;1.10;99.90;;;1.92;100.00;99818.19;4928231;29;20457;-75
2022/01/24 09:28:48;;;;;;;11.33;4.23;;;1.20;99.90;;;1.99;100.00;99815.19;4927663;29;20465;-74
2022/01/24 09:31:19;;;;;;;5.90;4.00;;;1.30;99.90;;;2.05;100.00;99808.00;4926784;29;20454;-75
2022/01/24 09:33:50;;;;;;;6.63;4.73;;;1.30;99.90;;;2.12;100.00;99807.53;4928892;29;20485;-75
2022/01/24 09:36:20;;;;;;;5.17;4.20;;;1.50;99.90;;;2.23;100.00;99812.91;4927767;29;20449;-75
2022/01/24 09:38:50;;;;;;;5.97;4.00;;;1.60;99.90;;;2.30;100.00;99809.03;4927540;29;20956;-75
2022/01/24 09:41:20;;;;;;;4.83;4.03;;;1.60;99.90;;;2.35;100.00;99809.59;4927728;29;20500;-75
2022/01/24 09:43:49;;;;;;;6.07;4.33;;;1.70;99.90;;;2.42;100.00;99810.91;4927759;29;20450;-75
2022/01/24 09:46:18;;;;;;;6.17;4.73;;;1.70;99.90;;;2.48;100.00;99809.69;4928191;29;20561;-74
2022/01/24 09:48:50;;;;;;;18.07;6.10;;;1.70;99.90;;;2.53;100.00;99811.06;4927159;29;20871;-75
2022/01/24 09:51:21;;;;;;;7.50;4.20;;;1.80;99.90;;;2.62;100.00;99807.09;4927051;29;20489;-75
2022/01/24 09:53:50;;;;;;;6.37;4.80;;;1.90;99.90;;;2.69;100.00;99813.53;4927393;28;20451;-75
2022/01/24 09:56:20;;;;;;;5.17;4.00;;;2.10;99.90;;;2.74;100.00;99808.91;4927772;29;20455;-74
2022/01/24 09:58:49;;;;;;;5.10;4.23;;;2.30;99.90;;;2.83;100.00;99810.13;4924916;29;21020;-75
2022/01/24 10:01:21;;;;;;;5.57;4.20;;;2.30;99.90;;;2.89;100.00;99807.16;4926645;29;20480;-75
2022/01/24 10:07:02;;;;;;;6.47;4.70;;;2.40;99.90;;;3.00;100.00;99799.56;5100299;27;20572;-73
2022/01/24 10:09:36;;;;;;;9.50;4.97;;;2.50;99.90;;;3.05;100.00;99806.09;5083905;28;20511;-74
2022/01/24 10:16:24;;;;;;;9.53;4.33;;;2.50;99.90;;;3.12;100.00;99805.72;5084034;28;20718;-74
2022/01/24 10:18:12;;;;;;;11.73;4.87;;;2.70;99.90;;;3.25;100.00;99802.28;5082918;28;21067;-74
2022/01/24 10:20:43;;;;;;;9.07;4.93;;;2.80;99.90;;;3.22;100.00;99805.06;5082982;28;20467;-73
2022/01/24 10:23:20;;;;;;;5.90;4.97;;;2.90;99.90;;;3.27;100.00;99809.91;5083512;28;20446;-73
2022/01/24 10:25:59;;;;;;;5.30;4.10;;;2.80;99.90;;;3.30;100.00;99809.72;5082669;28;20507;-73
2022/01/24 10:28:34;;;;;;;6.70;4.07;;;2.80;99.90;;;3.34;100.00;99808.59;5083061;28;20966;-73
2022/01/24 10:31:11;;;;;;;6.93;4.77;;;2.90;99.90;;;3.38;100.00;99810.88;5084048;28;20477;-74
2022/01/24 10:34:04;;;;;;;5.33;4.77;;;2.90;99.90;;;3.44;100.00;99800.16;5082983;28;20446;-74
2022/01/24 10:36:46;;;;;;;7.77;5.10;;;3.00;99.90;;;3.46;100.00;99803.47;5081507;28;20483;-73
2022/01/24 10:39:28;;;;;;;7.17;5.57;;;2.90;99.90;;;3.51;100.00;99798.81;5082704;28;20465;-73
2022/01/24 10:42:34;;;;;;;8.00;5.10;;;2.90;99.90;;;3.57;100.00;99804.53;5083442;28;20450;-74
2022/01/24 10:45:25;;;;;;;8.53;4.90;;;3.00;99.90;;;3.57;100.00;99796.78;5081218;28;20601;-74
2022/01/24 10:47:55;;;;;;;6.53;4.80;;;3.10;99.90;;;3.57;100.00;99786.44;5081572;28;20508;-74
2022/01/24 10:50:30;;;;;;;5.70;4.73;;;3.10;99.90;;;3.56;100.00;99790.78;5082093;28;20529;-73
2022/01/24 10:53:11;;;;;;;6.70;5.13;;;3.20;99.90;;;3.58;100.00;99782.91;5081077;28;20446;-73
2022/01/24 10:55:48;;;;;;;6.53;4.37;;;3.20;99.90;;;3.58;100.00;99773.41;5081887;28;20451;-73
2022/01/24 10:58:18;;;;;;;10.30;4.80;;;3.20;99.90;;;3.60;100.00;99786.25;5081883;28;20829;-73
2022/01/24 11:00:49;;;;;;;8.20;4.70;;;3.20;99.90;;;3.63;100.00;99771.34;5081927;28;20933;-74
2022/01/24 11:03:20;;;;;;;8.67;5.07;;;3.20;99.90;;;3.62;100.00;99767.09;5081394;28;20455;-73
2022/01/24 11:05:51;;;;;;;8.20;4.70;;;3.20;99.90;;;3.66;100.00;99775.47;5079750;28;20512;-73
2022/01/24 11:08:21;;;;;;;9.07;4.77;;;3.30;99.90;;;3.65;100.00;99769.47;5081588;28;20943;-73
2022/01/24 11:10:52;;;;;;;8.20;5.13;;;3.30;99.90;;;3.65;100.00;99779.81;5081794;28;20443;-74
2022/01/24 11:13:31;;;;;;;8.23;5.00;;;3.30;99.90;;;3.65;100.00;99777.22;5082344;28;21017;-73
2022/01/24 11:16:02;;;;;;;7.40;4.60;;;3.20;99.90;;;3.71;100.00;99776.84;5080031;28;20968;-73
2022/01/24 11:18:34;;;;;;;4.80;4.30;;;3.30;99.90;;;3.69;100.00;99773.53;5067655;28;20794;-73
2022/01/24 11:21:12;;;;;;;11.30;5.27;;;3.30;99.90;;;3.73;100.00;99774.16;5069083;28;20444;-74
2022/01/24 11:23:43;;;;;;;10.10;4.70;;;3.30;99.90;;;3.78;100.00;99765.19;5068428;28;20451;-73
2022/01/24 11:26:15;;;;;;;6.70;5.50;;;3.30;99.90;;;3.80;100.00;99770.22;5068395;28;20505;-74
2022/01/24 11:28:45;;;;;;;8.27;4.73;;;3.40;99.90;;;3.85;100.00;99773.34;5069312;28;20823;-74
2022/01/24 11:31:22;;;;;;;12.83;5.20;;;3.40;99.90;;;3.85;100.00;99753.47;5068647;28;20454;-74
2022/01/24 11:34:05;;;;;;;5.70;4.37;;;3.40;99.90;;;3.87;100.00;99750.78;5069640;28;20463;-74
2022/01/24 11:36:41;;;;;;;10.20;4.87;;;3.30;99.90;;;3.89;100.00;99747.16;5067507;28;20978;-73
2022/01/24 11:39:12;;;;;;;5.60;4.33;;;3.40;99.90;;;3.95;100.00;99746.75;5068279;28;20453;-74
2022/01/24 11:41:45;;;;;;;5.27;3.90;;;3.40;99.90;;;3.93;100.00;99748.59;5068846;28;20508;-74
2022/01/24 11:44:16;;;;;;;7.00;4.40;;;3.40;99.90;;;3.95;100.00;99751.09;5068813;28;20456;-74
2022/01/24 11:46:48;;;;;;;8.07;4.70;;;3.50;99.90;;;3.96;100.00;99744.97;5069738;28;20498;-73
2022/01/24 11:49:26;;;;;;;7.07;5.67;;;3.50;99.90;;;3.98;100.00;99750.91;5068996;28;20461;-74
2022/01/24 11:52:06;;;;;;;5.40;4.40;;;3.50;99.90;;;3.98;100.00;99751.72;5068814;28;20458;-74
2022/01/24 11:54:49;;;;;;;6.93;4.50;;;3.50;99.90;;;4.03;100.00;99748.81;5067684;28;20532;-73